Hansa Rendsburg — A8CF4 — position and weather

sailwx.info

Track history (hours):
 
Tides and Currents Weather Stations Pressure Air Temp Water Temp Dewpoint Dewpoint Depression Visibility Wind Speed Wind Dir Waves Ship Positions

Hansa Rendsburg

Last reported at 2017-Aug-18 16:54 UTC. Time now 2017-Aug-19 05:26 UTC.
Position N 09°14' W 013°42'.

Type: Cargo ship. MMSI: 636090636.

Date/timePositionNaut miles runAvg speedWind from/ knotsBaromVisibWave heightAir tempDewpointWater temp
2017-Aug-18 16:54N 09°14' W 013°42'717.5
2017-Aug-18 16:30N 09°21' W 013°42'713.5
2017-Aug-18 16:00N 09°28' W 013°44'3 6.2
2017-Aug-18 15:30N 09°31' W 013°43'0 0.2
2017-Aug-18 15:00N 09°31' W 013°43'0 0.0
2017-Aug-18 14:30N 09°31' W 013°43'0 0.0
2017-Aug-18 13:30N 09°31' W 013°43'0 0.0
2017-Aug-18 13:00N 09°31' W 013°43'0 0.0
2017-Aug-18 12:24N 09°31' W 013°43'0 0.0
2017-Aug-18 11:57N 09°31' W 013°43'0 0.0
2017-Aug-18 11:30N 09°31' W 013°43'  
2017-Aug-14 12:57N 24°24' W 015°59'19917.9
2017-Aug-14 01:52N 27°10' W 013°58'918.2
2017-Aug-14 01:22N 27°17' W 013°52'717.9
2017-Aug-14 00:59N 27°23' W 013°47'917.9
2017-Aug-14 00:29N 27°30' W 013°42'918.1
2017-Aug-14 00:00N 27°38' W 013°36'918.1
2017-Aug-13 23:30N 27°45' W 013°31'3018.0
2017-Aug-13 21:50N 28°09' W 013°10'618.1
2017-Aug-13 21:30N 28°14' W 013°07'1018.3
2017-Aug-13 20:58N 28°22' W 013°01'817.9
2017-Aug-13 20:30N 28°29' W 012°56'2717.6
2017-Aug-13 19:00N 28°51' W 012°38'1017.5
2017-Aug-13 18:26N 28°59' W 012°32'817.8
2017-Aug-13 18:00N 29°05' W 012°27'1017.7
2017-Aug-13 17:28N 29°13' W 012°20'917.8
2017-Aug-13 17:00N 29°20' W 012°14'917.7
2017-Aug-13 16:30N 29°27' W 012°08'1217.4
2017-Aug-13 15:48N 29°37' W 012°01'6317.3
2017-Aug-13 12:09N 30°29' W 011°19'1417.3
2017-Aug-13 11:20N 30°40' W 011°09'28017.3
2017-Aug-12 19:08N 34°19' W 007°41'217.6
2017-Aug-12 19:00N 34°21' W 007°40'14117.5
2017-Aug-12 10:59N 35°57' W 005°35'815.6
2017-Aug-12 10:30N 36°00' W 005°26'812.1
2017-Aug-12 09:51N 36°08' W 005°24'1 2.1
2017-Aug-12 09:29N 36°08' W 005°25'0 0.1
2017-Aug-12 09:00N 36°08' W 005°25'0 0.0
2017-Aug-12 08:30N 36°08' W 005°25'0 0.0
2017-Aug-12 08:00N 36°08' W 005°25'0 0.0
2017-Aug-12 07:30N 36°08' W 005°25'0 0.0
2017-Aug-12 07:00N 36°08' W 005°25'0 0.1
2017-Aug-12 06:30N 36°08' W 005°25'0 0.0
2017-Aug-12 06:00N 36°08' W 005°25'0 0.0
2017-Aug-12 05:21N 36°08' W 005°25'0 0.0
2017-Aug-12 05:00N 36°08' W 005°25'0 0.0
2017-Aug-12 04:30N 36°08' W 005°25'0 0.0
2017-Aug-12 04:00N 36°08' W 005°25'0 0.0
2017-Aug-12 03:29N 36°08' W 005°25'0 0.0
2017-Aug-12 02:59N 36°08' W 005°25'0 0.0
2017-Aug-12 02:29N 36°08' W 005°25'0 0.0
2017-Aug-12 01:59N 36°08' W 005°25'0 0.0
2017-Aug-12 01:23N 36°08' W 005°25'0 0.0
2017-Aug-12 00:53N 36°08' W 005°25'0 0.0
2017-Aug-11 23:56N 36°08' W 005°25'0 0.0
2017-Aug-11 23:29N 36°08' W 005°25'0 0.0
2017-Aug-11 22:41N 36°08' W 005°25'0 0.0
2017-Aug-11 22:23N 36°08' W 005°25'0 0.0
2017-Aug-11 21:53N 36°08' W 005°25'0 0.0
2017-Aug-11 21:26N 36°08' W 005°25'0 0.0
2017-Aug-11 20:59N 36°08' W 005°25'0 0.0
2017-Aug-11 20:29N 36°08' W 005°25'0 0.0
2017-Aug-11 19:59N 36°08' W 005°25'0 0.0
2017-Aug-11 19:29N 36°08' W 005°25'0 0.0
2017-Aug-11 18:59N 36°08' W 005°25'0 0.0
2017-Aug-11 18:29N 36°08' W 005°25'0 0.0
2017-Aug-11 17:59N 36°08' W 005°25'0 0.0
2017-Aug-11 17:29N 36°08' W 005°25'0 0.0
2017-Aug-11 16:59N 36°08' W 005°25'0 0.0
2017-Aug-11 16:29N 36°08' W 005°25'0 0.0
2017-Aug-11 15:59N 36°08' W 005°25'0 0.0
2017-Aug-11 15:29N 36°08' W 005°25'0 0.0
2017-Aug-11 14:59N 36°08' W 005°25'0 0.0
2017-Aug-11 13:59N 36°08' W 005°25'1 2.6
2017-Aug-11 13:30N 36°08' W 005°24'2 4.1
2017-Aug-11 13:01N 36°06' W 005°24'3 5.4
2017-Aug-11 12:30N 36°04' W 005°23'1 1.9
2017-Aug-11 11:56N 36°05' W 005°22'3 7.9
2017-Aug-11 11:30N 36°05' W 005°18'1 2.7
2017-Aug-11 10:59N 36°05' W 005°16'1 2.3
2017-Aug-11 10:26N 36°06' W 005°15'2 2.3
2017-Aug-11 09:38N 36°06' W 005°17'0 2.2
2017-Aug-11 09:28N 36°06' W 005°17'1 1.1
2017-Aug-11 08:53N 36°06' W 005°16'1 1.4
2017-Aug-11 08:17N 36°06' W 005°17'2 0.6
2017-Aug-11 04:28N 36°07' W 005°15'0 0.8
2017-Aug-11 04:00N 36°08' W 005°15'1 1.1
2017-Aug-11 03:21N 36°08' W 005°15'1 3.0
2017-Aug-11 03:00N 36°08' W 005°17'1 1.2
2017-Aug-11 02:30N 36°08' W 005°16'1 1.4
2017-Aug-11 02:00N 36°08' W 005°15'1 1.3
2017-Aug-11 01:30N 36°08' W 005°14'2 1.7
2017-Aug-11 00:16N 36°07' W 005°16'1 1.3
2017-Aug-10 23:46N 36°06' W 005°15'0 0.8
2017-Aug-10 23:30N 36°06' W 005°15'0 0.6
2017-Aug-10 23:00N 36°06' W 005°15'0 1.0
2017-Aug-10 22:30N 36°06' W 005°14'2 3.4
2017-Aug-10 21:58N 36°06' W 005°17'0 0.9
2017-Aug-10 21:30N 36°06' W 005°16'0 0.6
2017-Aug-10 20:40N 36°06' W 005°16'0 0.8
2017-Aug-10 20:24N 36°06' W 005°15'0 0.4
2017-Aug-10 19:59N 36°06' W 005°15'0 0.3
2017-Aug-10 19:03N 36°06' W 005°15'0 1.4
2017-Aug-10 18:58N 36°06' W 005°16'3 6.4
2017-Aug-10 18:30N 36°05' W 005°19'2 3.2
2017-Aug-10 17:46N 36°05' W 005°22'2 1.8
2017-Aug-10 16:27N 36°02' W 005°23'512.4
2017-Aug-10 16:00N 35°58' W 005°27'7 0.3
2017-Aug-09 15:09N 35°53' W 005°34'0 0.0
2017-Aug-09 14:07N 35°53' W 005°34'0 0.0
2017-Aug-09 13:51N 35°53' W 005°34'0 0.0
2017-Aug-09 13:25N 35°53' W 005°34'0 0.0
2017-Aug-09 11:12N 35°53' W 005°34'1 3.4
2017-Aug-09 11:00N 35°54' W 005°33'15410.3
2017-Aug-08 20:07N 34°10' W 007°52'211.8
2017-Aug-08 20:00N 34°09' W 007°53'611.7
2017-Aug-08 19:31N 34°05' W 007°57'  
Track history (hours):
 
Tides and Currents Weather Stations Pressure Air Temp Water Temp Dewpoint Dewpoint Depression Visibility Wind Speed Wind Dir Waves Ship Positions

Hansa Rendsburg

Last reported at 2017-Aug-18 16:54 UTC. Time now 2017-Aug-19 05:26 UTC.
Position N 09°14' W 013°42'.

Type: Cargo ship. MMSI: 636090636.

Date/timePositionNaut miles runAvg speedWind from/ knotsBaromVisibWave heightAir tempDewpointWater temp
2017-Aug-18 16:54N 09°14' W 013°42'717.5
2017-Aug-18 16:30N 09°21' W 013°42'713.5
2017-Aug-18 16:00N 09°28' W 013°44'3 6.2
2017-Aug-18 15:30N 09°31' W 013°43'0 0.2
2017-Aug-18 15:00N 09°31' W 013°43'0 0.0
2017-Aug-18 14:30N 09°31' W 013°43'0 0.0
2017-Aug-18 13:30N 09°31' W 013°43'0 0.0
2017-Aug-18 13:00N 09°31' W 013°43'0 0.0
2017-Aug-18 12:24N 09°31' W 013°43'0 0.0
2017-Aug-18 11:57N 09°31' W 013°43'0 0.0
2017-Aug-18 11:30N 09°31' W 013°43'  
2017-Aug-14 12:57N 24°24' W 015°59'19917.9
2017-Aug-14 01:52N 27°10' W 013°58'918.2
2017-Aug-14 01:22N 27°17' W 013°52'717.9
2017-Aug-14 00:59N 27°23' W 013°47'917.9
2017-Aug-14 00:29N 27°30' W 013°42'918.1
2017-Aug-14 00:00N 27°38' W 013°36'918.1
2017-Aug-13 23:30N 27°45' W 013°31'3018.0
2017-Aug-13 21:50N 28°09' W 013°10'618.1
2017-Aug-13 21:30N 28°14' W 013°07'1018.3
2017-Aug-13 20:58N 28°22' W 013°01'817.9
2017-Aug-13 20:30N 28°29' W 012°56'2717.6
2017-Aug-13 19:00N 28°51' W 012°38'1017.5
2017-Aug-13 18:26N 28°59' W 012°32'817.8
2017-Aug-13 18:00N 29°05' W 012°27'1017.7
2017-Aug-13 17:28N 29°13' W 012°20'917.8
2017-Aug-13 17:00N 29°20' W 012°14'917.7
2017-Aug-13 16:30N 29°27' W 012°08'1217.4
2017-Aug-13 15:48N 29°37' W 012°01'6317.3
2017-Aug-13 12:09N 30°29' W 011°19'1417.3
2017-Aug-13 11:20N 30°40' W 011°09'28017.3
2017-Aug-12 19:08N 34°19' W 007°41'217.6
2017-Aug-12 19:00N 34°21' W 007°40'14117.5
2017-Aug-12 10:59N 35°57' W 005°35'815.6
2017-Aug-12 10:30N 36°00' W 005°26'812.1
2017-Aug-12 09:51N 36°08' W 005°24'1 2.1
2017-Aug-12 09:29N 36°08' W 005°25'0 0.1
2017-Aug-12 09:00N 36°08' W 005°25'0 0.0
2017-Aug-12 08:30N 36°08' W 005°25'0 0.0
2017-Aug-12 08:00N 36°08' W 005°25'0 0.0
2017-Aug-12 07:30N 36°08' W 005°25'0 0.0
2017-Aug-12 07:00N 36°08' W 005°25'0 0.1
2017-Aug-12 06:30N 36°08' W 005°25'0 0.0
2017-Aug-12 06:00N 36°08' W 005°25'0 0.0
2017-Aug-12 05:21N 36°08' W 005°25'0 0.0
2017-Aug-12 05:00N 36°08' W 005°25'0 0.0
2017-Aug-12 04:30N 36°08' W 005°25'0 0.0
2017-Aug-12 04:00N 36°08' W 005°25'0 0.0
2017-Aug-12 03:29N 36°08' W 005°25'0 0.0
2017-Aug-12 02:59N 36°08' W 005°25'0 0.0
2017-Aug-12 02:29N 36°08' W 005°25'0 0.0
2017-Aug-12 01:59N 36°08' W 005°25'0 0.0
2017-Aug-12 01:23N 36°08' W 005°25'0 0.0
2017-Aug-12 00:53N 36°08' W 005°25'0 0.0
2017-Aug-11 23:56N 36°08' W 005°25'0 0.0
2017-Aug-11 23:29N 36°08' W 005°25'0 0.0
2017-Aug-11 22:41N 36°08' W 005°25'0 0.0
2017-Aug-11 22:23N 36°08' W 005°25'0 0.0
2017-Aug-11 21:53N 36°08' W 005°25'0 0.0
2017-Aug-11 21:26N 36°08' W 005°25'0 0.0
2017-Aug-11 20:59N 36°08' W 005°25'0 0.0
2017-Aug-11 20:29N 36°08' W 005°25'0 0.0
2017-Aug-11 19:59N 36°08' W 005°25'0 0.0
2017-Aug-11 19:29N 36°08' W 005°25'0 0.0
2017-Aug-11 18:59N 36°08' W 005°25'0 0.0
2017-Aug-11 18:29N 36°08' W 005°25'0 0.0
2017-Aug-11 17:59N 36°08' W 005°25'0 0.0
2017-Aug-11 17:29N 36°08' W 005°25'0 0.0
2017-Aug-11 16:59N 36°08' W 005°25'0 0.0
2017-Aug-11 16:29N 36°08' W 005°25'0 0.0
2017-Aug-11 15:59N 36°08' W 005°25'0 0.0
2017-Aug-11 15:29N 36°08' W 005°25'0 0.0
2017-Aug-11 14:59N 36°08' W 005°25'0 0.0
2017-Aug-11 13:59N 36°08' W 005°25'1 2.6
2017-Aug-11 13:30N 36°08' W 005°24'2 4.1
2017-Aug-11 13:01N 36°06' W 005°24'3 5.4
2017-Aug-11 12:30N 36°04' W 005°23'1 1.9
2017-Aug-11 11:56N 36°05' W 005°22'3 7.9
2017-Aug-11 11:30N 36°05' W 005°18'1 2.7
2017-Aug-11 10:59N 36°05' W 005°16'1 2.3
2017-Aug-11 10:26N 36°06' W 005°15'2 2.3
2017-Aug-11 09:38N 36°06' W 005°17'0 2.2
2017-Aug-11 09:28N 36°06' W 005°17'1 1.1
2017-Aug-11 08:53N 36°06' W 005°16'1 1.4
2017-Aug-11 08:17N 36°06' W 005°17'2 0.6
2017-Aug-11 04:28N 36°07' W 005°15'0 0.8
2017-Aug-11 04:00N 36°08' W 005°15'1 1.1
2017-Aug-11 03:21N 36°08' W 005°15'1 3.0
2017-Aug-11 03:00N 36°08' W 005°17'1 1.2
2017-Aug-11 02:30N 36°08' W 005°16'1 1.4
2017-Aug-11 02:00N 36°08' W 005°15'1 1.3
2017-Aug-11 01:30N 36°08' W 005°14'2 1.7
2017-Aug-11 00:16N 36°07' W 005°16'1 1.3
2017-Aug-10 23:46N 36°06' W 005°15'0 0.8
2017-Aug-10 23:30N 36°06' W 005°15'0 0.6
2017-Aug-10 23:00N 36°06' W 005°15'0 1.0
2017-Aug-10 22:30N 36°06' W 005°14'2 3.4
2017-Aug-10 21:58N 36°06' W 005°17'0 0.9
2017-Aug-10 21:30N 36°06' W 005°16'0 0.6
2017-Aug-10 20:40N 36°06' W 005°16'0 0.8
2017-Aug-10 20:24N 36°06' W 005°15'0 0.4
2017-Aug-10 19:59N 36°06' W 005°15'0 0.3
2017-Aug-10 19:03N 36°06' W 005°15'0 1.4
2017-Aug-10 18:58N 36°06' W 005°16'3 6.4
2017-Aug-10 18:30N 36°05' W 005°19'2 3.2
2017-Aug-10 17:46N 36°05' W 005°22'2 1.8
2017-Aug-10 16:27N 36°02' W 005°23'512.4
2017-Aug-10 16:00N 35°58' W 005°27'7 0.3
2017-Aug-09 15:09N 35°53' W 005°34'0 0.0
2017-Aug-09 14:07N 35°53' W 005°34'0 0.0
2017-Aug-09 13:51N 35°53' W 005°34'0 0.0
2017-Aug-09 13:25N 35°53' W 005°34'0 0.0
2017-Aug-09 11:12N 35°53' W 005°34'1 3.4
2017-Aug-09 11:00N 35°54' W 005°33'15410.3
2017-Aug-08 20:07N 34°10' W 007°52'211.8
2017-Aug-08 20:00N 34°09' W 007°53'611.7
2017-Aug-08 19:31N 34°05' W 007°57'  

Dump ship's entire track history